IGO301 VTSP-VABB
Flight info
| Callsign | IGO301 |
|---|---|
| Flight time | 4h 0m |
| Altitude | 34000 |
| Route | VTSP/27 N0458F340 UBNE1B UBNEN DCT IDKUT DCT EMRAN DCT AGEGA DCT AMVUR DCT DUMAR/N0460F360 L518 HIA W18 PONIP Z5 BEDOL MOLG2A VABB/27 |
| Aircraft | A321/M-SDFGHIRWY/C |
Departure
| Time | 2026-04-28 07:17 |
|---|---|
| Airport | Phuket International Airport (VTSP) |
Arrival
| Time | 2026-04-28 11:17 |
|---|---|
| Airport | Chhatrapati Shivaji Maharaj International Airport (VABB) |
| Time | Latitude | Longitude | Altitude | Speed | Heading |
|---|---|---|---|---|---|
| 2026-04-28 07:16 | 8.11440 | 98.32954 | 59 ft | 0 kts | 264° |
| 2026-04-28 07:16 | 8.11439 | 98.32951 | 59 ft | 5 kts | 264° |
| 2026-04-28 07:17 | 8.11408 | 98.32608 | 53 ft | 96 kts | 265° |
| 2026-04-28 07:17 | 8.11314 | 98.31613 | 34 ft | 183 kts | 264° |
| 2026-04-28 07:17 | 8.11183 | 98.30244 | 618 ft | 209 kts | 264° |
| 2026-04-28 07:17 | 8.11068 | 98.28670 | 1161 ft | 242 kts | 265° |
| 2026-04-28 07:18 | 8.10959 | 98.26853 | 1701 ft | 277 kts | 266° |
| 2026-04-28 07:18 | 8.10861 | 98.24828 | 2120 ft | 301 kts | 267° |
| 2026-04-28 07:18 | 8.10771 | 98.22635 | 2502 ft | 322 kts | 267° |
| 2026-04-28 07:18 | 8.10641 | 98.20327 | 3023 ft | 337 kts | 265° |
| 2026-04-28 07:19 | 8.10453 | 98.17935 | 3573 ft | 346 kts | 265° |
| 2026-04-28 07:19 | 8.10286 | 98.15494 | 4123 ft | 350 kts | 266° |
| 2026-04-28 07:19 | 8.10147 | 98.13057 | 4678 ft | 354 kts | 267° |
| 2026-04-28 07:19 | 8.10024 | 98.10563 | 5225 ft | 356 kts | 267° |
| 2026-04-28 07:20 | 8.09919 | 98.08054 | 5783 ft | 359 kts | 268° |
| 2026-04-28 07:20 | 8.09821 | 98.05526 | 6339 ft | 362 kts | 268° |
| 2026-04-28 07:20 | 8.09726 | 98.02982 | 6874 ft | 364 kts | 268° |
| 2026-04-28 07:20 | 8.09631 | 98.00418 | 7414 ft | 367 kts | 268° |
| 2026-04-28 07:21 | 8.09536 | 97.97831 | 7967 ft | 370 kts | 268° |
| 2026-04-28 07:21 | 8.09441 | 97.95228 | 8520 ft | 373 kts | 268° |
| 2026-04-28 07:21 | 8.09345 | 97.92600 | 9089 ft | 376 kts | 268° |
| 2026-04-28 07:22 | 8.09150 | 97.87286 | 10199 ft | 382 kts | 268° |
| 2026-04-28 07:22 | 8.09084 | 97.85503 | 10462 ft | 384 kts | 268° |
| 2026-04-28 07:22 | 8.08952 | 97.81919 | 10938 ft | 387 kts | 268° |
| 2026-04-28 07:22 | 8.08886 | 97.80108 | 11173 ft | 389 kts | 268° |
| 2026-04-28 07:23 | 8.08758 | 97.76440 | 11655 ft | 392 kts | 268° |
| 2026-04-28 07:23 | 8.08696 | 97.74615 | 11891 ft | 393 kts | 268° |
| 2026-04-28 07:23 | 8.08603 | 97.71847 | 12260 ft | 396 kts | 268° |
| 2026-04-28 07:23 | 8.08509 | 97.69067 | 12630 ft | 398 kts | 268° |
| 2026-04-28 07:24 | 8.08415 | 97.66274 | 13003 ft | 400 kts | 268° |
| 2026-04-28 07:24 | 8.08319 | 97.63454 | 13387 ft | 402 kts | 268° |
| 2026-04-28 07:24 | 8.08222 | 97.60627 | 13750 ft | 405 kts | 268° |
| 2026-04-28 07:24 | 8.08124 | 97.57776 | 14090 ft | 407 kts | 268° |
| 2026-04-28 07:25 | 8.08026 | 97.54915 | 14433 ft | 409 kts | 268° |
| 2026-04-28 07:25 | 8.07926 | 97.52040 | 14778 ft | 411 kts | 268° |
| 2026-04-28 07:25 | 8.07826 | 97.49147 | 15125 ft | 413 kts | 268° |
| 2026-04-28 07:25 | 8.07727 | 97.46278 | 15477 ft | 415 kts | 268° |
| 2026-04-28 07:26 | 8.07625 | 97.43356 | 15833 ft | 418 kts | 268° |
| 2026-04-28 07:26 | 8.07523 | 97.40417 | 16195 ft | 420 kts | 268° |
| 2026-04-28 07:26 | 8.07420 | 97.37463 | 16560 ft | 422 kts | 268° |
| 2026-04-28 07:26 | 8.07316 | 97.34488 | 16931 ft | 425 kts | 268° |
| 2026-04-28 07:27 | 8.07212 | 97.31504 | 17306 ft | 427 kts | 268° |
| 2026-04-28 07:27 | 8.07107 | 97.28503 | 17698 ft | 429 kts | 268° |
| 2026-04-28 07:27 | 8.07000 | 97.25481 | 18076 ft | 430 kts | 268° |
| 2026-04-28 07:27 | 8.06894 | 97.22460 | 18405 ft | 431 kts | 268° |
| 2026-04-28 07:28 | 8.06788 | 97.19434 | 18734 ft | 431 kts | 268° |
| 2026-04-28 07:28 | 8.06681 | 97.16405 | 19069 ft | 432 kts | 268° |
| 2026-04-28 07:28 | 8.06574 | 97.13382 | 19409 ft | 431 kts | 268° |
| 2026-04-28 07:28 | 8.06466 | 97.10359 | 19750 ft | 431 kts | 268° |
| 2026-04-28 07:29 | 8.06360 | 97.07377 | 20090 ft | 430 kts | 268° |
| 2026-04-28 07:29 | 8.06253 | 97.04365 | 20443 ft | 429 kts | 268° |
| 2026-04-28 07:29 | 8.06144 | 97.01344 | 20798 ft | 430 kts | 268° |
| 2026-04-28 07:29 | 8.06036 | 96.98322 | 21157 ft | 431 kts | 269° |
| 2026-04-28 07:30 | 8.05927 | 96.95293 | 21525 ft | 432 kts | 269° |
| 2026-04-28 07:30 | 8.05818 | 96.92256 | 21894 ft | 434 kts | 269° |
| 2026-04-28 07:30 | 8.05708 | 96.89212 | 22267 ft | 435 kts | 269° |
| 2026-04-28 07:30 | 8.05598 | 96.86150 | 22658 ft | 437 kts | 269° |
| 2026-04-28 07:31 | 8.05487 | 96.83083 | 23037 ft | 439 kts | 269° |
| 2026-04-28 07:31 | 8.05375 | 96.80002 | 23416 ft | 440 kts | 269° |
| 2026-04-28 07:31 | 8.05263 | 96.76914 | 23737 ft | 441 kts | 269° |
| 2026-04-28 07:31 | 8.05151 | 96.73842 | 24059 ft | 443 kts | 269° |
| 2026-04-28 07:32 | 8.05038 | 96.70737 | 24390 ft | 445 kts | 269° |
| 2026-04-28 07:32 | 8.04924 | 96.67608 | 24723 ft | 447 kts | 269° |
| 2026-04-28 07:32 | 8.04808 | 96.64460 | 25064 ft | 450 kts | 269° |
| 2026-04-28 07:32 | 8.04692 | 96.61292 | 25401 ft | 453 kts | 269° |
| 2026-04-28 07:33 | 8.04575 | 96.58106 | 25745 ft | 456 kts | 269° |
| 2026-04-28 07:33 | 8.04457 | 96.54903 | 26096 ft | 458 kts | 269° |
| 2026-04-28 07:33 | 8.04338 | 96.51683 | 26452 ft | 460 kts | 269° |
| 2026-04-28 07:33 | 8.04218 | 96.48446 | 26810 ft | 462 kts | 269° |
| 2026-04-28 07:34 | 8.04097 | 96.45193 | 27168 ft | 464 kts | 269° |
| 2026-04-28 07:34 | 8.03976 | 96.41935 | 27550 ft | 466 kts | 269° |
| 2026-04-28 07:34 | 8.03856 | 96.38702 | 27907 ft | 467 kts | 269° |
| 2026-04-28 07:34 | 8.03733 | 96.35430 | 28279 ft | 468 kts | 269° |
| 2026-04-28 07:35 | 8.03610 | 96.32145 | 28658 ft | 468 kts | 269° |
| 2026-04-28 07:35 | 8.03487 | 96.28853 | 29045 ft | 469 kts | 269° |
| 2026-04-28 07:35 | 8.03363 | 96.25564 | 29437 ft | 469 kts | 269° |
| 2026-04-28 07:35 | 8.03239 | 96.22275 | 29834 ft | 469 kts | 269° |
| 2026-04-28 07:36 | 8.03115 | 96.18983 | 30190 ft | 469 kts | 269° |
| 2026-04-28 07:36 | 8.02990 | 96.15692 | 30523 ft | 469 kts | 269° |
| 2026-04-28 07:36 | 8.02866 | 96.12403 | 30866 ft | 468 kts | 269° |
| 2026-04-28 07:36 | 8.02741 | 96.09128 | 31213 ft | 467 kts | 269° |
| 2026-04-28 07:37 | 8.02616 | 96.05855 | 31562 ft | 466 kts | 269° |
| 2026-04-28 07:37 | 8.02494 | 96.02636 | 31914 ft | 465 kts | 269° |
| 2026-04-28 07:37 | 8.02369 | 95.99379 | 32275 ft | 464 kts | 269° |
| 2026-04-28 07:37 | 8.02245 | 95.96129 | 32638 ft | 463 kts | 269° |
| 2026-04-28 07:38 | 8.02120 | 95.92886 | 32810 ft | 461 kts | 269° |
| 2026-04-28 07:38 | 8.01996 | 95.89651 | 32837 ft | 461 kts | 269° |
| 2026-04-28 07:38 | 8.01747 | 95.83185 | 32837 ft | 461 kts | 269° |
| 2026-04-28 07:39 | 8.01496 | 95.76715 | 32837 ft | 461 kts | 269° |
| 2026-04-28 07:39 | 8.01247 | 95.70287 | 32837 ft | 461 kts | 269° |
| 2026-04-28 07:40 | 8.00994 | 95.63810 | 32837 ft | 462 kts | 269° |
| 2026-04-28 07:40 | 8.00740 | 95.57333 | 32837 ft | 462 kts | 269° |
| 2026-04-28 07:41 | 8.01081 | 95.50890 | 32837 ft | 459 kts | 284° |
| 2026-04-28 07:41 | 8.02030 | 95.47831 | 32840 ft | 456 kts | 295° |
| 2026-04-28 07:41 | 8.03347 | 95.44913 | 32841 ft | 456 kts | 297° |
| 2026-04-28 07:42 | 8.06265 | 95.39230 | 32840 ft | 456 kts | 300° |
| 2026-04-28 07:42 | 8.09292 | 95.33606 | 32840 ft | 456 kts | 300° |
| 2026-04-28 07:43 | 8.12291 | 95.27988 | 32837 ft | 457 kts | 300° |
| 2026-04-28 07:43 | 8.15289 | 95.22305 | 32837 ft | 458 kts | 300° |
| 2026-04-28 07:44 | 8.18276 | 95.16613 | 32837 ft | 458 kts | 299° |
| 2026-04-28 07:44 | 8.21239 | 95.10962 | 32837 ft | 458 kts | 299° |
| 2026-04-28 07:45 | 8.24220 | 95.05277 | 32837 ft | 458 kts | 299° |
| 2026-04-28 07:45 | 8.27203 | 94.99590 | 32834 ft | 458 kts | 299° |
| 2026-04-28 07:46 | 8.30187 | 94.93897 | 32834 ft | 458 kts | 299° |
| 2026-04-28 07:46 | 8.33172 | 94.88201 | 32834 ft | 458 kts | 299° |
| 2026-04-28 07:47 | 8.36148 | 94.82518 | 32831 ft | 457 kts | 299° |
| 2026-04-28 07:47 | 8.38958 | 94.77150 | 32832 ft | 457 kts | 299° |
| 2026-04-28 07:48 | 8.40459 | 94.74272 | 32881 ft | 432 kts | 299° |
| 2026-04-28 07:48 | 8.41837 | 94.71631 | 32806 ft | 426 kts | 299° |
| 2026-04-28 07:48 | 8.44674 | 94.66220 | 32837 ft | 445 kts | 299° |
| 2026-04-28 07:49 | 8.47604 | 94.60630 | 32833 ft | 456 kts | 299° |
| 2026-04-28 07:49 | 8.50573 | 94.54949 | 32829 ft | 457 kts | 299° |
| 2026-04-28 07:50 | 8.53546 | 94.49256 | 32829 ft | 458 kts | 299° |
| 2026-04-28 07:50 | 8.56517 | 94.43566 | 32829 ft | 458 kts | 299° |
| 2026-04-28 07:51 | 8.59667 | 94.37985 | 32832 ft | 457 kts | 303° |
| 2026-04-28 07:51 | 8.63068 | 94.32559 | 32832 ft | 456 kts | 304° |
| 2026-04-28 07:52 | 8.66492 | 94.27149 | 32832 ft | 457 kts | 304° |
| 2026-04-28 07:52 | 8.69868 | 94.21753 | 32832 ft | 456 kts | 303° |
| 2026-04-28 07:53 | 8.73235 | 94.16328 | 32832 ft | 455 kts | 303° |
| 2026-04-28 07:53 | 8.76593 | 94.10905 | 32832 ft | 455 kts | 303° |
| 2026-04-28 07:54 | 8.79954 | 94.05478 | 32829 ft | 455 kts | 303° |
| 2026-04-28 07:54 | 8.83270 | 94.00021 | 32827 ft | 456 kts | 299° |
| 2026-04-28 07:55 | 8.86164 | 93.94313 | 32829 ft | 456 kts | 298° |
| 2026-04-28 07:55 | 8.88966 | 93.88550 | 32829 ft | 456 kts | 297° |
| 2026-04-28 07:56 | 8.91746 | 93.82782 | 32829 ft | 456 kts | 297° |
| 2026-04-28 07:56 | 8.94519 | 93.77038 | 32829 ft | 457 kts | 297° |
| 2026-04-28 07:57 | 8.97320 | 93.71248 | 32829 ft | 457 kts | 297° |
| 2026-04-28 07:57 | 9.00117 | 93.65472 | 32829 ft | 457 kts | 297° |
| 2026-04-28 07:58 | 9.02916 | 93.59688 | 32829 ft | 457 kts | 297° |
| 2026-04-28 07:58 | 9.05690 | 93.53950 | 32829 ft | 457 kts | 297° |
| 2026-04-28 07:59 | 9.08484 | 93.48170 | 32829 ft | 456 kts | 297° |
| 2026-04-28 07:59 | 9.11269 | 93.42406 | 32829 ft | 455 kts | 297° |
| 2026-04-28 08:00 | 9.14051 | 93.36643 | 32832 ft | 455 kts | 297° |
| 2026-04-28 08:00 | 9.16833 | 93.30880 | 32832 ft | 455 kts | 297° |
| 2026-04-28 08:01 | 9.19594 | 93.25155 | 32829 ft | 455 kts | 297° |
| 2026-04-28 08:01 | 9.22372 | 93.19393 | 32829 ft | 455 kts | 297° |
| 2026-04-28 08:02 | 9.25150 | 93.13630 | 32829 ft | 455 kts | 297° |
| 2026-04-28 08:02 | 9.27924 | 93.07871 | 32829 ft | 455 kts | 297° |
| 2026-04-28 08:03 | 9.30700 | 93.02106 | 32829 ft | 456 kts | 297° |
| 2026-04-28 08:03 | 9.33478 | 92.96332 | 32829 ft | 456 kts | 297° |
| 2026-04-28 08:04 | 9.36259 | 92.90550 | 32829 ft | 456 kts | 297° |
| 2026-04-28 08:04 | 9.39040 | 92.84766 | 32829 ft | 456 kts | 297° |
| 2026-04-28 08:05 | 9.41801 | 92.79019 | 32829 ft | 456 kts | 297° |
| 2026-04-28 08:05 | 9.44581 | 92.73230 | 32829 ft | 456 kts | 297° |
| 2026-04-28 08:06 | 9.47352 | 92.67457 | 32828 ft | 455 kts | 297° |
| 2026-04-28 08:06 | 9.50115 | 92.61699 | 32829 ft | 455 kts | 297° |
| 2026-04-28 08:07 | 9.52883 | 92.55927 | 32829 ft | 455 kts | 297° |
| 2026-04-28 08:07 | 9.55648 | 92.50157 | 32829 ft | 455 kts | 297° |
| 2026-04-28 08:08 | 9.58409 | 92.44395 | 32829 ft | 454 kts | 297° |
| 2026-04-28 08:08 | 9.61152 | 92.38666 | 32826 ft | 454 kts | 297° |
| 2026-04-28 08:09 | 9.63913 | 92.32897 | 32826 ft | 454 kts | 297° |
| 2026-04-28 08:09 | 9.66672 | 92.27129 | 32829 ft | 455 kts | 297° |
| 2026-04-28 08:10 | 9.69434 | 92.21351 | 32829 ft | 455 kts | 297° |
| 2026-04-28 08:10 | 9.72194 | 92.15576 | 32829 ft | 455 kts | 297° |
| 2026-04-28 08:11 | 9.74937 | 92.09832 | 32829 ft | 455 kts | 297° |
| 2026-04-28 08:11 | 9.77694 | 92.04056 | 32829 ft | 455 kts | 297° |
| 2026-04-28 08:12 | 9.80450 | 91.98279 | 32829 ft | 455 kts | 297° |
| 2026-04-28 08:12 | 9.82741 | 91.93475 | 32829 ft | 455 kts | 297° |
| 2026-04-28 08:13 | 9.85937 | 91.86770 | 32826 ft | 454 kts | 297° |
| 2026-04-28 08:13 | 9.88682 | 91.81005 | 32826 ft | 454 kts | 297° |
| 2026-04-28 08:14 | 9.91429 | 91.75236 | 32829 ft | 454 kts | 297° |
| 2026-04-28 08:14 | 9.93709 | 91.70445 | 32829 ft | 454 kts | 297° |
| 2026-04-28 08:15 | 9.96457 | 91.64668 | 32829 ft | 454 kts | 297° |
| 2026-04-28 08:15 | 9.99200 | 91.58897 | 32829 ft | 454 kts | 297° |
| 2026-04-28 08:16 | 10.01943 | 91.53125 | 32829 ft | 454 kts | 297° |
| 2026-04-28 08:16 | 10.04667 | 91.47389 | 32829 ft | 454 kts | 296° |
| 2026-04-28 08:17 | 10.07411 | 91.41607 | 32829 ft | 454 kts | 296° |
| 2026-04-28 08:17 | 10.10156 | 91.35820 | 32826 ft | 454 kts | 296° |
| 2026-04-28 08:18 | 10.12897 | 91.30039 | 32829 ft | 454 kts | 296° |
| 2026-04-28 08:18 | 10.15636 | 91.24259 | 32829 ft | 454 kts | 296° |
| 2026-04-28 08:19 | 10.18374 | 91.18478 | 32826 ft | 454 kts | 296° |
| 2026-04-28 08:19 | 10.21112 | 91.12695 | 32826 ft | 454 kts | 296° |
| 2026-04-28 08:20 | 10.23820 | 91.06970 | 32826 ft | 452 kts | 296° |
| 2026-04-28 08:20 | 10.26544 | 91.01208 | 32826 ft | 452 kts | 296° |
| 2026-04-28 08:21 | 10.29267 | 90.95447 | 32829 ft | 452 kts | 296° |
| 2026-04-28 08:21 | 10.31987 | 90.89687 | 32829 ft | 452 kts | 296° |
| 2026-04-28 08:22 | 10.34708 | 90.83922 | 32829 ft | 452 kts | 296° |
| 2026-04-28 08:22 | 10.37425 | 90.78164 | 32829 ft | 452 kts | 296° |
| 2026-04-28 08:23 | 10.40144 | 90.72397 | 32829 ft | 453 kts | 296° |
| 2026-04-28 08:23 | 10.42868 | 90.66619 | 32829 ft | 453 kts | 296° |
| 2026-04-28 08:24 | 10.45573 | 90.60876 | 32829 ft | 453 kts | 296° |
| 2026-04-28 08:24 | 10.48294 | 90.55095 | 32829 ft | 453 kts | 296° |
| 2026-04-28 08:25 | 10.51015 | 90.49311 | 32826 ft | 453 kts | 296° |
| 2026-04-28 08:26 | 10.55094 | 90.40636 | 32826 ft | 453 kts | 296° |
| 2026-04-28 08:26 | 10.57811 | 90.34853 | 32829 ft | 453 kts | 296° |
| 2026-04-28 08:27 | 10.60500 | 90.29127 | 32829 ft | 450 kts | 296° |
| 2026-04-28 08:27 | 10.63197 | 90.23380 | 32830 ft | 449 kts | 296° |
| 2026-04-28 08:28 | 10.65887 | 90.17642 | 32829 ft | 449 kts | 296° |
| 2026-04-28 08:28 | 10.68578 | 90.11904 | 32830 ft | 449 kts | 296° |
| 2026-04-28 08:29 | 10.71264 | 90.06170 | 32829 ft | 450 kts | 296° |
| 2026-04-28 08:29 | 10.74157 | 90.00581 | 32829 ft | 448 kts | 305° |
| 2026-04-28 08:30 | 10.78289 | 89.95849 | 32828 ft | 448 kts | 315° |
| 2026-04-28 08:30 | 10.82793 | 89.91471 | 32829 ft | 448 kts | 317° |
| 2026-04-28 08:31 | 10.87372 | 89.87153 | 32829 ft | 448 kts | 317° |
| 2026-04-28 08:31 | 10.91939 | 89.82824 | 32826 ft | 449 kts | 317° |
| 2026-04-28 08:32 | 10.96499 | 89.78468 | 32825 ft | 447 kts | 316° |
| 2026-04-28 08:32 | 11.00984 | 89.74169 | 32826 ft | 445 kts | 316° |
| 2026-04-28 08:33 | 11.05487 | 89.69848 | 32826 ft | 444 kts | 316° |
| 2026-04-28 08:33 | 11.09983 | 89.65534 | 32823 ft | 443 kts | 316° |
| 2026-04-28 08:34 | 11.14467 | 89.61231 | 32825 ft | 443 kts | 316° |
| 2026-04-28 08:34 | 11.18962 | 89.56916 | 32826 ft | 444 kts | 316° |
| 2026-04-28 08:35 | 11.23454 | 89.52602 | 32824 ft | 444 kts | 316° |
| 2026-04-28 08:35 | 11.27946 | 89.48285 | 32826 ft | 443 kts | 316° |
| 2026-04-28 08:36 | 11.32397 | 89.44007 | 32823 ft | 442 kts | 316° |
| 2026-04-28 08:36 | 11.36877 | 89.39698 | 32823 ft | 442 kts | 316° |
| 2026-04-28 08:37 | 11.41344 | 89.35400 | 32826 ft | 442 kts | 316° |
| 2026-04-28 08:37 | 11.45815 | 89.31096 | 32827 ft | 442 kts | 316° |
| 2026-04-28 08:38 | 11.50291 | 89.26785 | 32824 ft | 442 kts | 316° |
| 2026-04-28 08:38 | 11.54745 | 89.22494 | 32827 ft | 443 kts | 316° |
| 2026-04-28 08:39 | 11.59221 | 89.18179 | 32824 ft | 443 kts | 316° |
| 2026-04-28 08:39 | 11.63694 | 89.13866 | 32823 ft | 442 kts | 316° |
| 2026-04-28 08:40 | 11.68159 | 89.09557 | 32823 ft | 442 kts | 316° |
| 2026-04-28 08:40 | 11.72627 | 89.05245 | 32824 ft | 443 kts | 316° |
| 2026-04-28 08:41 | 11.77105 | 89.00920 | 32823 ft | 442 kts | 316° |
| 2026-04-28 08:41 | 11.81571 | 88.96605 | 32823 ft | 442 kts | 316° |
| 2026-04-28 08:42 | 11.86042 | 88.92282 | 32824 ft | 443 kts | 316° |
| 2026-04-28 08:42 | 11.90511 | 88.87960 | 32823 ft | 443 kts | 316° |
| 2026-04-28 08:43 | 11.94958 | 88.83658 | 32824 ft | 443 kts | 316° |
| 2026-04-28 08:43 | 11.99423 | 88.79336 | 32823 ft | 442 kts | 316° |
| 2026-04-28 08:44 | 12.03884 | 88.75015 | 32824 ft | 442 kts | 316° |
| 2026-04-28 08:44 | 12.08320 | 88.70702 | 32818 ft | 439 kts | 313° |
| 2026-04-28 08:45 | 12.12001 | 88.65758 | 32821 ft | 437 kts | 302° |
| 2026-04-28 08:45 | 12.15193 | 88.60480 | 32818 ft | 437 kts | 300° |
| 2026-04-28 08:46 | 12.18286 | 88.55143 | 32818 ft | 437 kts | 300° |
| 2026-04-28 08:46 | 12.21382 | 88.49799 | 32818 ft | 437 kts | 300° |
| 2026-04-28 08:47 | 12.24492 | 88.44464 | 32821 ft | 437 kts | 300° |
| 2026-04-28 08:47 | 12.27594 | 88.39159 | 32821 ft | 437 kts | 300° |
| 2026-04-28 08:48 | 12.30717 | 88.33817 | 32816 ft | 437 kts | 300° |
| 2026-04-28 08:48 | 12.33839 | 88.28474 | 32818 ft | 437 kts | 300° |
| 2026-04-28 08:49 | 12.36957 | 88.23132 | 32819 ft | 437 kts | 300° |
| 2026-04-28 08:49 | 12.40076 | 88.17786 | 32818 ft | 437 kts | 300° |
| 2026-04-28 08:50 | 12.43183 | 88.12457 | 32819 ft | 434 kts | 300° |
| 2026-04-28 08:50 | 12.46256 | 88.07184 | 32817 ft | 434 kts | 300° |
| 2026-04-28 08:51 | 12.49348 | 88.01875 | 32818 ft | 434 kts | 300° |
| 2026-04-28 08:51 | 12.52456 | 87.96534 | 32818 ft | 434 kts | 300° |
| 2026-04-28 08:52 | 12.55523 | 87.91262 | 32815 ft | 434 kts | 300° |
| 2026-04-28 08:52 | 12.58611 | 87.85950 | 32815 ft | 434 kts | 300° |
| 2026-04-28 08:53 | 12.61696 | 87.80642 | 32816 ft | 434 kts | 300° |
| 2026-04-28 08:53 | 12.64785 | 87.75323 | 32815 ft | 434 kts | 300° |
| 2026-04-28 08:54 | 12.67871 | 87.70006 | 32818 ft | 434 kts | 300° |
| 2026-04-28 08:54 | 12.70950 | 87.64697 | 32815 ft | 433 kts | 300° |
| 2026-04-28 08:55 | 12.74025 | 87.59393 | 32818 ft | 433 kts | 300° |
| 2026-04-28 08:55 | 12.77077 | 87.54124 | 32817 ft | 431 kts | 300° |
| 2026-04-28 08:56 | 12.80120 | 87.48869 | 32816 ft | 428 kts | 300° |
| 2026-04-28 08:56 | 12.83155 | 87.43624 | 32815 ft | 427 kts | 300° |
| 2026-04-28 08:57 | 12.86186 | 87.38384 | 32812 ft | 427 kts | 300° |
| 2026-04-28 08:57 | 12.89219 | 87.33137 | 32813 ft | 427 kts | 300° |
| 2026-04-28 08:58 | 12.92247 | 87.27895 | 32813 ft | 428 kts | 300° |
| 2026-04-28 08:58 | 12.95262 | 87.22673 | 32813 ft | 428 kts | 300° |
| 2026-04-28 08:59 | 12.98291 | 87.17423 | 32813 ft | 428 kts | 300° |
| 2026-04-28 08:59 | 13.01317 | 87.12176 | 32812 ft | 428 kts | 300° |
| 2026-04-28 09:00 | 13.04343 | 87.06925 | 32814 ft | 428 kts | 300° |
| 2026-04-28 09:00 | 13.06862 | 87.02552 | 32815 ft | 427 kts | 300° |
| 2026-04-28 09:00 | 13.08889 | 86.99030 | 32819 ft | 438 kts | 300° |
| 2026-04-28 09:01 | 13.10448 | 86.96320 | 32815 ft | 443 kts | 300° |
| 2026-04-28 09:01 | 13.13592 | 86.90856 | 32813 ft | 445 kts | 299° |
| 2026-04-28 09:02 | 13.16736 | 86.85388 | 32812 ft | 444 kts | 299° |
| 2026-04-28 09:02 | 13.19347 | 86.80844 | 32810 ft | 444 kts | 299° |
| 2026-04-28 09:03 | 13.22491 | 86.75370 | 32810 ft | 444 kts | 299° |
| 2026-04-28 09:03 | 13.25630 | 86.69901 | 32810 ft | 444 kts | 299° |
| 2026-04-28 09:04 | 13.28767 | 86.64431 | 32809 ft | 444 kts | 299° |
| 2026-04-28 09:04 | 13.31900 | 86.58965 | 32810 ft | 444 kts | 299° |
| 2026-04-28 09:05 | 13.35036 | 86.53490 | 32808 ft | 444 kts | 299° |
| 2026-04-28 09:05 | 13.38149 | 86.48051 | 32810 ft | 444 kts | 299° |
| 2026-04-28 09:06 | 13.41281 | 86.42576 | 32811 ft | 444 kts | 299° |
| 2026-04-28 09:06 | 13.44411 | 86.37102 | 32809 ft | 444 kts | 299° |
| 2026-04-28 09:07 | 13.47543 | 86.31619 | 32807 ft | 444 kts | 299° |
| 2026-04-28 09:07 | 13.50659 | 86.26162 | 32804 ft | 441 kts | 299° |
| 2026-04-28 09:08 | 13.53762 | 86.20724 | 32809 ft | 441 kts | 299° |
| 2026-04-28 09:08 | 13.56843 | 86.15322 | 32808 ft | 441 kts | 299° |
| 2026-04-28 09:09 | 13.59941 | 86.09886 | 32807 ft | 441 kts | 299° |
| 2026-04-28 09:09 | 13.63039 | 86.04447 | 32807 ft | 441 kts | 299° |
| 2026-04-28 09:10 | 13.66139 | 85.98999 | 32805 ft | 441 kts | 299° |
| 2026-04-28 09:10 | 13.69236 | 85.93555 | 32806 ft | 441 kts | 299° |
| 2026-04-28 09:11 | 13.72331 | 85.88110 | 32805 ft | 441 kts | 299° |
| 2026-04-28 09:11 | 13.75425 | 85.82664 | 32802 ft | 441 kts | 299° |
| 2026-04-28 09:12 | 13.78496 | 85.77253 | 32798 ft | 441 kts | 299° |
| 2026-04-28 09:12 | 13.81588 | 85.71804 | 32799 ft | 441 kts | 299° |
| 2026-04-28 09:13 | 13.84667 | 85.66372 | 32798 ft | 439 kts | 299° |
| 2026-04-28 09:13 | 13.87742 | 85.60946 | 32800 ft | 438 kts | 299° |
| 2026-04-28 09:14 | 13.90809 | 85.55529 | 32798 ft | 438 kts | 299° |
| 2026-04-28 09:14 | 13.93877 | 85.50106 | 32799 ft | 438 kts | 299° |
| 2026-04-28 09:15 | 13.96921 | 85.44722 | 32800 ft | 438 kts | 299° |
| 2026-04-28 09:15 | 13.99987 | 85.39297 | 32801 ft | 438 kts | 299° |
| 2026-04-28 09:16 | 14.03053 | 85.33867 | 32797 ft | 439 kts | 299° |
| 2026-04-28 09:16 | 14.06120 | 85.28433 | 32799 ft | 439 kts | 299° |
| 2026-04-28 09:17 | 14.09189 | 85.22991 | 32798 ft | 439 kts | 299° |
| 2026-04-28 09:17 | 14.12260 | 85.17542 | 32796 ft | 439 kts | 299° |
| 2026-04-28 09:18 | 14.15326 | 85.12099 | 32800 ft | 439 kts | 299° |
| 2026-04-28 09:18 | 14.18365 | 85.06699 | 32799 ft | 437 kts | 298° |
| 2026-04-28 09:19 | 14.21405 | 85.01296 | 32795 ft | 436 kts | 298° |
| 2026-04-28 09:19 | 14.24447 | 84.95883 | 32793 ft | 436 kts | 298° |
| 2026-04-28 09:20 | 14.27484 | 84.90477 | 32793 ft | 436 kts | 298° |
| 2026-04-28 09:20 | 14.30521 | 84.85066 | 32793 ft | 436 kts | 298° |
| 2026-04-28 09:21 | 14.33556 | 84.79658 | 32794 ft | 436 kts | 298° |
| 2026-04-28 09:21 | 14.36572 | 84.74281 | 32793 ft | 436 kts | 298° |
| 2026-04-28 09:22 | 14.39608 | 84.68866 | 32794 ft | 436 kts | 298° |
| 2026-04-28 09:22 | 14.42643 | 84.63449 | 32793 ft | 437 kts | 298° |
| 2026-04-28 09:23 | 14.45685 | 84.58015 | 32790 ft | 438 kts | 298° |
| 2026-04-28 09:23 | 14.48735 | 84.52563 | 32791 ft | 438 kts | 298° |
| 2026-04-28 09:24 | 14.51776 | 84.47124 | 32794 ft | 437 kts | 298° |
| 2026-04-28 09:24 | 14.54801 | 84.41710 | 32790 ft | 434 kts | 298° |
| 2026-04-28 09:25 | 14.57796 | 84.36345 | 32793 ft | 433 kts | 298° |
| 2026-04-28 09:25 | 14.60804 | 84.30954 | 32793 ft | 433 kts | 298° |
| 2026-04-28 09:26 | 14.63813 | 84.25557 | 32794 ft | 434 kts | 298° |
| 2026-04-28 09:26 | 14.66828 | 84.20145 | 32790 ft | 435 kts | 298° |
| 2026-04-28 09:27 | 14.71355 | 84.12014 | 32790 ft | 435 kts | 298° |
| 2026-04-28 09:27 | 14.74353 | 84.06624 | 32793 ft | 435 kts | 298° |
| 2026-04-28 09:28 | 14.77366 | 84.01204 | 32790 ft | 435 kts | 298° |
| 2026-04-28 09:28 | 14.80378 | 83.95780 | 32790 ft | 435 kts | 298° |
| 2026-04-28 09:29 | 14.83393 | 83.90349 | 32787 ft | 435 kts | 297° |
| 2026-04-28 09:29 | 14.86407 | 83.84915 | 32793 ft | 435 kts | 297° |
| 2026-04-28 09:30 | 14.89404 | 83.79509 | 32793 ft | 433 kts | 297° |
| 2026-04-28 09:30 | 14.92396 | 83.74107 | 32793 ft | 432 kts | 297° |
| 2026-04-28 09:31 | 14.95384 | 83.68707 | 32791 ft | 432 kts | 297° |
| 2026-04-28 09:31 | 14.98352 | 83.63340 | 32790 ft | 432 kts | 297° |
| 2026-04-28 09:32 | 15.01337 | 83.57940 | 32788 ft | 432 kts | 297° |
| 2026-04-28 09:32 | 15.04320 | 83.52539 | 32787 ft | 432 kts | 297° |
| 2026-04-28 09:33 | 15.07305 | 83.47130 | 32790 ft | 433 kts | 297° |
| 2026-04-28 09:33 | 15.10292 | 83.41715 | 32788 ft | 433 kts | 297° |
| 2026-04-28 09:34 | 15.13264 | 83.36323 | 32788 ft | 433 kts | 297° |
| 2026-04-28 09:34 | 15.16251 | 83.30901 | 32787 ft | 433 kts | 297° |
| 2026-04-28 09:35 | 15.19234 | 83.25480 | 32785 ft | 433 kts | 297° |
| 2026-04-28 09:35 | 15.22218 | 83.20053 | 32785 ft | 433 kts | 297° |
| 2026-04-28 09:36 | 15.25202 | 83.14624 | 32785 ft | 433 kts | 297° |
| 2026-04-28 09:36 | 15.28166 | 83.09228 | 32788 ft | 434 kts | 297° |
| 2026-04-28 09:37 | 15.31150 | 83.03790 | 32786 ft | 434 kts | 297° |
| 2026-04-28 09:37 | 15.34136 | 82.98346 | 32782 ft | 434 kts | 297° |
| 2026-04-28 09:38 | 15.37118 | 82.92904 | 32785 ft | 434 kts | 297° |
| 2026-04-28 09:38 | 15.40097 | 82.87464 | 32786 ft | 434 kts | 297° |
| 2026-04-28 09:39 | 15.43068 | 82.82016 | 32785 ft | 434 kts | 297° |
| 2026-04-28 09:39 | 15.45998 | 82.76595 | 32785 ft | 434 kts | 297° |
| 2026-04-28 09:40 | 15.48943 | 82.71134 | 32782 ft | 434 kts | 297° |
| 2026-04-28 09:40 | 15.51890 | 82.65671 | 32782 ft | 434 kts | 297° |
| 2026-04-28 09:41 | 15.54829 | 82.60215 | 32782 ft | 432 kts | 297° |
| 2026-04-28 09:41 | 15.57766 | 82.54767 | 32782 ft | 432 kts | 297° |
| 2026-04-28 09:42 | 15.60697 | 82.49327 | 32782 ft | 432 kts | 297° |
| 2026-04-28 09:42 | 15.63609 | 82.43916 | 32782 ft | 432 kts | 297° |
| 2026-04-28 09:43 | 15.66540 | 82.38466 | 32775 ft | 433 kts | 297° |
| 2026-04-28 09:43 | 15.69500 | 82.33001 | 32777 ft | 435 kts | 298° |
| 2026-04-28 09:44 | 15.72488 | 82.27540 | 32777 ft | 435 kts | 298° |
| 2026-04-28 09:44 | 15.75479 | 82.22077 | 32777 ft | 435 kts | 298° |
| 2026-04-28 09:45 | 15.78467 | 82.16607 | 32774 ft | 435 kts | 298° |
| 2026-04-28 09:45 | 15.81433 | 82.11170 | 32774 ft | 435 kts | 298° |
| 2026-04-28 09:46 | 15.84415 | 82.05699 | 32774 ft | 435 kts | 298° |
| 2026-04-28 09:46 | 15.87448 | 82.00261 | 32776 ft | 435 kts | 299° |
| 2026-04-28 09:47 | 15.90549 | 81.94860 | 32774 ft | 435 kts | 299° |
| 2026-04-28 09:47 | 15.93662 | 81.89449 | 32766 ft | 435 kts | 299° |
| 2026-04-28 09:48 | 15.96764 | 81.84036 | 32769 ft | 435 kts | 299° |
| 2026-04-28 09:48 | 15.99857 | 81.78624 | 32766 ft | 435 kts | 299° |
| 2026-04-28 09:49 | 16.02936 | 81.73229 | 32766 ft | 435 kts | 299° |
| 2026-04-28 09:49 | 16.06027 | 81.67808 | 32766 ft | 436 kts | 299° |
| 2026-04-28 09:50 | 16.09116 | 81.62391 | 32765 ft | 434 kts | 298° |
| 2026-04-28 09:50 | 16.12196 | 81.56983 | 32765 ft | 433 kts | 298° |
| 2026-04-28 09:51 | 16.14745 | 81.52503 | 32764 ft | 433 kts | 298° |
| 2026-04-28 09:51 | 16.18317 | 81.46221 | 32765 ft | 432 kts | 298° |
| 2026-04-28 09:52 | 16.20864 | 81.41742 | 32755 ft | 426 kts | 298° |
| 2026-04-28 09:52 | 16.23856 | 81.36473 | 32758 ft | 425 kts | 298° |
| 2026-04-28 09:53 | 16.26858 | 81.31180 | 32754 ft | 424 kts | 298° |
| 2026-04-28 09:53 | 16.29857 | 81.25891 | 32758 ft | 424 kts | 298° |
| 2026-04-28 09:54 | 16.32859 | 81.20591 | 32744 ft | 425 kts | 298° |
| 2026-04-28 09:54 | 16.35863 | 81.15285 | 32745 ft | 425 kts | 298° |
| 2026-04-28 09:55 | 16.38865 | 81.09980 | 32738 ft | 425 kts | 298° |
| 2026-04-28 09:55 | 16.41865 | 81.04674 | 32729 ft | 425 kts | 298° |
| 2026-04-28 09:56 | 16.44841 | 80.99407 | 32722 ft | 425 kts | 298° |
| 2026-04-28 09:56 | 16.47837 | 80.94099 | 32724 ft | 425 kts | 298° |
| 2026-04-28 09:57 | 16.50832 | 80.88789 | 32719 ft | 424 kts | 298° |
| 2026-04-28 09:57 | 16.53621 | 80.83398 | 32719 ft | 421 kts | 290° |
| 2026-04-28 09:58 | 16.55485 | 80.77623 | 32722 ft | 420 kts | 286° |
| 2026-04-28 09:58 | 16.57137 | 80.71783 | 32720 ft | 420 kts | 285° |
| 2026-04-28 09:59 | 16.58747 | 80.65933 | 32723 ft | 420 kts | 285° |
| 2026-04-28 09:59 | 16.60360 | 80.60117 | 32733 ft | 420 kts | 285° |
| 2026-04-28 10:00 | 16.61994 | 80.54263 | 32734 ft | 420 kts | 285° |
| 2026-04-28 10:00 | 16.63633 | 80.48414 | 32738 ft | 420 kts | 285° |
| 2026-04-28 10:01 | 16.65266 | 80.42565 | 32734 ft | 420 kts | 285° |
| 2026-04-28 10:01 | 16.66899 | 80.36706 | 32735 ft | 420 kts | 285° |
| 2026-04-28 10:02 | 16.68521 | 80.30885 | 32740 ft | 420 kts | 285° |
| 2026-04-28 10:02 | 16.70150 | 80.25030 | 32742 ft | 420 kts | 285° |
| 2026-04-28 10:03 | 16.71778 | 80.19175 | 32740 ft | 420 kts | 285° |
| 2026-04-28 10:03 | 16.73405 | 80.13313 | 32744 ft | 421 kts | 285° |
| 2026-04-28 10:04 | 16.75032 | 80.07446 | 32747 ft | 421 kts | 285° |
| 2026-04-28 10:04 | 16.76657 | 80.01576 | 32753 ft | 421 kts | 285° |
| 2026-04-28 10:05 | 16.78273 | 79.95735 | 32754 ft | 421 kts | 285° |
| 2026-04-28 10:05 | 16.79894 | 79.89868 | 32754 ft | 421 kts | 285° |
| 2026-04-28 10:06 | 16.81512 | 79.84010 | 32761 ft | 419 kts | 285° |
| 2026-04-28 10:06 | 16.83121 | 79.78173 | 32758 ft | 418 kts | 284° |
| 2026-04-28 10:07 | 16.84728 | 79.72333 | 32760 ft | 419 kts | 284° |
| 2026-04-28 10:07 | 16.86335 | 79.66489 | 32769 ft | 419 kts | 284° |
| 2026-04-28 10:08 | 16.87941 | 79.60639 | 32765 ft | 419 kts | 284° |
| 2026-04-28 10:08 | 16.89546 | 79.54792 | 32776 ft | 419 kts | 284° |
| 2026-04-28 10:09 | 16.91150 | 79.48937 | 32775 ft | 419 kts | 284° |
| 2026-04-28 10:09 | 16.92739 | 79.43127 | 32778 ft | 419 kts | 284° |
| 2026-04-28 10:10 | 16.94342 | 79.37267 | 32787 ft | 418 kts | 284° |
| 2026-04-28 10:10 | 16.95937 | 79.31424 | 32787 ft | 418 kts | 284° |
| 2026-04-28 10:11 | 16.97604 | 79.25603 | 32794 ft | 418 kts | 285° |
| 2026-04-28 10:11 | 16.99346 | 79.19834 | 32792 ft | 418 kts | 286° |
| 2026-04-28 10:12 | 17.01103 | 79.14035 | 32794 ft | 418 kts | 286° |
| 2026-04-28 10:12 | 17.02847 | 79.08238 | 32803 ft | 418 kts | 285° |
| 2026-04-28 10:13 | 17.04585 | 79.02434 | 32805 ft | 418 kts | 285° |
| 2026-04-28 10:13 | 17.06320 | 78.96623 | 32816 ft | 418 kts | 285° |
| 2026-04-28 10:14 | 17.08053 | 78.90814 | 32818 ft | 418 kts | 285° |
| 2026-04-28 10:14 | 17.09783 | 78.85016 | 32821 ft | 417 kts | 285° |
| 2026-04-28 10:15 | 17.11502 | 78.79245 | 32827 ft | 416 kts | 285° |
| 2026-04-28 10:15 | 17.13208 | 78.73509 | 32826 ft | 415 kts | 285° |
| 2026-04-28 10:16 | 17.14924 | 78.67735 | 32824 ft | 416 kts | 285° |
| 2026-04-28 10:16 | 17.16643 | 78.61944 | 32833 ft | 417 kts | 285° |
| 2026-04-28 10:17 | 17.18359 | 78.56154 | 32831 ft | 417 kts | 285° |
| 2026-04-28 10:17 | 17.20074 | 78.50362 | 32832 ft | 417 kts | 285° |
| 2026-04-28 10:18 | 17.21789 | 78.44568 | 32827 ft | 417 kts | 285° |
| 2026-04-28 10:18 | 17.22993 | 78.38667 | 32832 ft | 415 kts | 275° |
| 2026-04-28 10:19 | 17.23458 | 78.32687 | 32825 ft | 415 kts | 273° |
| 2026-04-28 10:19 | 17.23783 | 78.26665 | 32830 ft | 415 kts | 272° |
| 2026-04-28 10:20 | 17.24091 | 78.20635 | 32828 ft | 415 kts | 272° |
| 2026-04-28 10:20 | 17.24412 | 78.14617 | 32832 ft | 415 kts | 273° |
| 2026-04-28 10:21 | 17.24742 | 78.08589 | 32833 ft | 415 kts | 273° |
| 2026-04-28 10:21 | 17.25072 | 78.02556 | 32828 ft | 415 kts | 273° |
| 2026-04-28 10:22 | 17.25401 | 77.96527 | 32828 ft | 415 kts | 273° |
| 2026-04-28 10:22 | 17.25725 | 77.90530 | 32822 ft | 416 kts | 272° |
| 2026-04-28 10:23 | 17.26051 | 77.84472 | 32832 ft | 417 kts | 272° |
| 2026-04-28 10:23 | 17.26374 | 77.78418 | 32813 ft | 417 kts | 272° |
| 2026-04-28 10:24 | 17.26697 | 77.72353 | 32807 ft | 417 kts | 272° |
| 2026-04-28 10:24 | 17.27017 | 77.66296 | 32802 ft | 417 kts | 272° |
| 2026-04-28 10:25 | 17.27335 | 77.60237 | 32810 ft | 417 kts | 272° |
| 2026-04-28 10:25 | 17.27651 | 77.54183 | 32807 ft | 416 kts | 272° |
| 2026-04-28 10:26 | 17.27965 | 77.48140 | 32797 ft | 416 kts | 272° |
| 2026-04-28 10:26 | 17.28277 | 77.42094 | 32805 ft | 416 kts | 272° |
| 2026-04-28 10:27 | 17.28588 | 77.36043 | 32804 ft | 416 kts | 272° |
| 2026-04-28 10:27 | 17.28894 | 77.30038 | 32804 ft | 416 kts | 272° |
| 2026-04-28 10:28 | 17.29201 | 77.23994 | 32805 ft | 416 kts | 272° |
| 2026-04-28 10:29 | 17.29658 | 77.14911 | 32792 ft | 417 kts | 272° |
| 2026-04-28 10:29 | 17.29961 | 77.08840 | 32791 ft | 417 kts | 272° |
| 2026-04-28 10:30 | 17.30263 | 77.02776 | 32788 ft | 417 kts | 272° |
| 2026-04-28 10:30 | 17.30560 | 76.96751 | 32785 ft | 417 kts | 272° |
| 2026-04-28 10:31 | 17.30858 | 76.90689 | 32782 ft | 417 kts | 272° |
| 2026-04-28 10:31 | 17.31153 | 76.84636 | 32778 ft | 414 kts | 272° |
| 2026-04-28 10:32 | 17.31664 | 76.78644 | 32773 ft | 413 kts | 277° |
| 2026-04-28 10:32 | 17.32533 | 76.72712 | 32779 ft | 412 kts | 278° |
| 2026-04-28 10:33 | 17.33469 | 76.66788 | 32771 ft | 412 kts | 278° |
| 2026-04-28 10:33 | 17.34403 | 76.60903 | 32769 ft | 412 kts | 278° |
| 2026-04-28 10:34 | 17.35334 | 76.54980 | 32770 ft | 412 kts | 278° |
| 2026-04-28 10:34 | 17.36259 | 76.49055 | 32773 ft | 412 kts | 278° |
| 2026-04-28 10:35 | 17.37179 | 76.43142 | 32766 ft | 411 kts | 278° |
| 2026-04-28 10:35 | 17.38097 | 76.37230 | 32769 ft | 411 kts | 278° |
| 2026-04-28 10:36 | 17.39013 | 76.31319 | 32768 ft | 411 kts | 278° |
| 2026-04-28 10:36 | 17.39927 | 76.25411 | 32769 ft | 411 kts | 278° |
| 2026-04-28 10:37 | 17.40841 | 76.19493 | 32777 ft | 411 kts | 278° |
| 2026-04-28 10:37 | 17.41746 | 76.13619 | 32770 ft | 411 kts | 278° |
| 2026-04-28 10:38 | 17.42656 | 76.07700 | 32776 ft | 411 kts | 278° |
| 2026-04-28 10:38 | 17.43565 | 76.01774 | 32774 ft | 411 kts | 278° |
| 2026-04-28 10:39 | 17.44331 | 75.96860 | 32779 ft | 411 kts | 278° |
| 2026-04-28 10:39 | 17.45275 | 75.90948 | 32781 ft | 411 kts | 278° |
| 2026-04-28 10:40 | 17.46376 | 75.84070 | 32783 ft | 411 kts | 278° |
| 2026-04-28 10:40 | 17.47160 | 75.79152 | 32780 ft | 411 kts | 278° |
| 2026-04-28 10:41 | 17.48100 | 75.73228 | 32789 ft | 413 kts | 278° |
| 2026-04-28 10:41 | 17.49042 | 75.67277 | 32792 ft | 414 kts | 278° |
| 2026-04-28 10:42 | 17.49981 | 75.61331 | 32777 ft | 414 kts | 278° |
| 2026-04-28 10:42 | 17.50919 | 75.55386 | 32780 ft | 414 kts | 278° |
| 2026-04-28 10:43 | 17.51856 | 75.49436 | 32781 ft | 414 kts | 278° |
| 2026-04-28 10:43 | 17.52785 | 75.43521 | 32781 ft | 414 kts | 278° |
| 2026-04-28 10:44 | 17.53718 | 75.37571 | 32776 ft | 414 kts | 278° |
| 2026-04-28 10:44 | 17.54648 | 75.31622 | 32785 ft | 411 kts | 278° |
| 2026-04-28 10:45 | 17.55569 | 75.25726 | 32783 ft | 410 kts | 278° |
| 2026-04-28 10:45 | 17.56488 | 75.19831 | 32786 ft | 409 kts | 278° |
| 2026-04-28 10:46 | 17.57399 | 75.13970 | 32789 ft | 410 kts | 278° |
| 2026-04-28 10:46 | 17.58313 | 75.08079 | 32785 ft | 410 kts | 278° |
| 2026-04-28 10:47 | 17.59229 | 75.02165 | 32782 ft | 411 kts | 278° |
| 2026-04-28 10:47 | 17.60145 | 74.96240 | 32782 ft | 411 kts | 278° |
| 2026-04-28 10:48 | 17.61060 | 74.90312 | 32783 ft | 412 kts | 278° |
| 2026-04-28 10:48 | 17.61965 | 74.84431 | 32782 ft | 411 kts | 278° |
| 2026-04-28 10:49 | 17.62875 | 74.78510 | 32782 ft | 411 kts | 278° |
| 2026-04-28 10:49 | 17.63784 | 74.72581 | 32788 ft | 412 kts | 278° |
| 2026-04-28 10:49 | 17.64239 | 74.69616 | 32580 ft | 411 kts | 278° |
| 2026-04-28 10:50 | 17.64692 | 74.66652 | 32206 ft | 412 kts | 278° |
| 2026-04-28 10:50 | 17.65146 | 74.63679 | 31821 ft | 414 kts | 278° |
| 2026-04-28 10:50 | 17.65603 | 74.60686 | 31441 ft | 416 kts | 278° |
| 2026-04-28 10:50 | 17.66061 | 74.57680 | 31068 ft | 419 kts | 278° |
| 2026-04-28 10:51 | 17.66521 | 74.54660 | 30692 ft | 421 kts | 278° |
| 2026-04-28 10:51 | 17.66983 | 74.51619 | 30324 ft | 423 kts | 278° |
| 2026-04-28 10:51 | 17.67448 | 74.48563 | 29955 ft | 425 kts | 277° |
| 2026-04-28 10:51 | 17.67912 | 74.45505 | 29551 ft | 424 kts | 277° |
| 2026-04-28 10:52 | 17.68375 | 74.42451 | 29123 ft | 423 kts | 278° |
| 2026-04-28 10:52 | 17.68831 | 74.39443 | 28704 ft | 421 kts | 278° |
| 2026-04-28 10:52 | 17.69289 | 74.36417 | 28298 ft | 420 kts | 278° |
| 2026-04-28 10:52 | 17.69745 | 74.33400 | 27895 ft | 418 kts | 278° |
| 2026-04-28 10:53 | 17.70206 | 74.30399 | 27494 ft | 416 kts | 278° |
| 2026-04-28 10:53 | 17.70673 | 74.27409 | 27100 ft | 415 kts | 278° |
| 2026-04-28 10:53 | 17.71147 | 74.24372 | 26720 ft | 432 kts | 278° |
| 2026-04-28 10:53 | 17.71639 | 74.21226 | 26349 ft | 441 kts | 278° |
| 2026-04-28 10:54 | 17.72136 | 74.18041 | 25975 ft | 443 kts | 278° |
| 2026-04-28 10:54 | 17.72635 | 74.14853 | 25601 ft | 443 kts | 278° |
| 2026-04-28 10:54 | 17.73131 | 74.11672 | 25231 ft | 441 kts | 278° |
| 2026-04-28 10:54 | 17.73625 | 74.08497 | 24868 ft | 439 kts | 278° |
| 2026-04-28 10:55 | 17.74117 | 74.05337 | 24521 ft | 438 kts | 278° |
| 2026-04-28 10:55 | 17.74607 | 74.02184 | 24167 ft | 437 kts | 278° |
| 2026-04-28 10:55 | 17.75090 | 73.99070 | 23815 ft | 436 kts | 278° |
| 2026-04-28 10:55 | 17.75584 | 73.95930 | 23472 ft | 436 kts | 280° |
| 2026-04-28 10:56 | 17.76412 | 73.92870 | 23073 ft | 437 kts | 292° |
| 2026-04-28 10:56 | 17.77942 | 73.90111 | 22663 ft | 438 kts | 303° |
| 2026-04-28 10:56 | 17.79772 | 73.87562 | 22252 ft | 437 kts | 306° |
| 2026-04-28 10:56 | 17.81648 | 73.85058 | 21836 ft | 435 kts | 307° |
| 2026-04-28 10:57 | 17.83520 | 73.82562 | 21449 ft | 434 kts | 306° |
| 2026-04-28 10:57 | 17.85375 | 73.80077 | 21057 ft | 431 kts | 307° |
| 2026-04-28 10:57 | 17.87216 | 73.77602 | 20667 ft | 427 kts | 306° |
| 2026-04-28 10:57 | 17.89028 | 73.75158 | 20287 ft | 422 kts | 306° |
| 2026-04-28 10:58 | 17.90827 | 73.72727 | 19910 ft | 419 kts | 306° |
| 2026-04-28 10:58 | 17.92612 | 73.70312 | 19537 ft | 418 kts | 307° |
| 2026-04-28 10:58 | 17.94375 | 73.67925 | 19165 ft | 418 kts | 307° |
| 2026-04-28 10:58 | 17.96163 | 73.65503 | 18814 ft | 419 kts | 307° |
| 2026-04-28 10:59 | 17.97947 | 73.63084 | 18454 ft | 418 kts | 307° |
| 2026-04-28 10:59 | 17.99734 | 73.60662 | 18096 ft | 420 kts | 308° |
| 2026-04-28 10:59 | 18.01522 | 73.58239 | 17691 ft | 419 kts | 307° |
| 2026-04-28 10:59 | 18.03303 | 73.55826 | 17280 ft | 417 kts | 307° |
| 2026-04-28 11:00 | 18.05070 | 73.53429 | 16882 ft | 414 kts | 307° |
| 2026-04-28 11:00 | 18.06826 | 73.51044 | 16469 ft | 412 kts | 307° |
| 2026-04-28 11:00 | 18.08581 | 73.48661 | 16081 ft | 411 kts | 307° |
| 2026-04-28 11:00 | 18.10329 | 73.46287 | 15690 ft | 410 kts | 307° |
| 2026-04-28 11:01 | 18.12066 | 73.43928 | 15321 ft | 407 kts | 307° |
| 2026-04-28 11:01 | 18.13797 | 73.41580 | 14940 ft | 405 kts | 308° |
| 2026-04-28 11:01 | 18.15700 | 73.39397 | 14568 ft | 410 kts | 317° |
| 2026-04-28 11:01 | 18.18078 | 73.37659 | 14203 ft | 422 kts | 331° |
| 2026-04-28 11:02 | 18.20713 | 73.36358 | 13832 ft | 424 kts | 336° |
| 2026-04-28 11:02 | 18.23439 | 73.35148 | 13460 ft | 424 kts | 337° |
| 2026-04-28 11:02 | 18.26160 | 73.33954 | 13054 ft | 422 kts | 337° |
| 2026-04-28 11:02 | 18.28864 | 73.32763 | 12655 ft | 420 kts | 336° |
| 2026-04-28 11:03 | 18.31549 | 73.31572 | 12267 ft | 417 kts | 336° |
| 2026-04-28 11:03 | 18.34212 | 73.30387 | 11876 ft | 414 kts | 336° |
| 2026-04-28 11:03 | 18.36858 | 73.29205 | 11497 ft | 412 kts | 336° |
| 2026-04-28 11:03 | 18.39497 | 73.28025 | 11112 ft | 411 kts | 336° |
| 2026-04-28 11:04 | 18.42128 | 73.26848 | 10736 ft | 409 kts | 336° |
| 2026-04-28 11:04 | 18.44738 | 73.25680 | 10363 ft | 407 kts | 336° |
| 2026-04-28 11:04 | 18.47337 | 73.24515 | 10004 ft | 405 kts | 336° |
| 2026-04-28 11:04 | 18.49896 | 73.23368 | 9833 ft | 404 kts | 337° |
| 2026-04-28 11:05 | 18.52485 | 73.22208 | 9785 ft | 403 kts | 337° |
| 2026-04-28 11:05 | 18.55063 | 73.21052 | 9782 ft | 402 kts | 337° |
| 2026-04-28 11:05 | 18.57644 | 73.19894 | 9782 ft | 402 kts | 337° |
| 2026-04-28 11:05 | 18.60218 | 73.18739 | 9782 ft | 402 kts | 337° |
| 2026-04-28 11:06 | 18.62796 | 73.17582 | 9780 ft | 402 kts | 336° |
| 2026-04-28 11:06 | 18.65392 | 73.16491 | 9749 ft | 402 kts | 341° |
| 2026-04-28 11:06 | 18.68111 | 73.15877 | 9476 ft | 400 kts | 354° |
| 2026-04-28 11:06 | 18.70890 | 73.15708 | 9152 ft | 400 kts | 358° |
| 2026-04-28 11:07 | 18.73671 | 73.15641 | 8835 ft | 398 kts | 358° |
| 2026-04-28 11:07 | 18.76394 | 73.15587 | 8519 ft | 389 kts | 358° |
| 2026-04-28 11:07 | 18.78998 | 73.15532 | 8197 ft | 358 kts | 358° |
| 2026-04-28 11:07 | 18.81351 | 73.15479 | 7865 ft | 318 kts | 358° |
| 2026-04-28 11:08 | 18.83445 | 73.15430 | 7551 ft | 285 kts | 358° |
| 2026-04-28 11:08 | 18.85346 | 73.15382 | 7224 ft | 262 kts | 358° |
| 2026-04-28 11:08 | 18.87087 | 73.15338 | 6937 ft | 238 kts | 358° |
| 2026-04-28 11:08 | 18.88695 | 73.15296 | 6566 ft | 222 kts | 357° |
| 2026-04-28 11:09 | 18.90186 | 73.15253 | 6239 ft | 208 kts | 356° |
| 2026-04-28 11:09 | 18.91588 | 73.15096 | 5935 ft | 203 kts | 349° |
| 2026-04-28 11:09 | 18.92938 | 73.14714 | 5633 ft | 200 kts | 340° |
| 2026-04-28 11:09 | 18.94196 | 73.14092 | 5325 ft | 200 kts | 330° |
| 2026-04-28 11:10 | 18.95372 | 73.13300 | 5017 ft | 200 kts | 327° |
| 2026-04-28 11:10 | 18.96512 | 73.12470 | 4713 ft | 198 kts | 326° |
| 2026-04-28 11:10 | 18.97636 | 73.11644 | 4406 ft | 196 kts | 326° |
| 2026-04-28 11:10 | 18.98755 | 73.10825 | 4093 ft | 195 kts | 326° |
| 2026-04-28 11:11 | 18.99874 | 73.10008 | 3833 ft | 195 kts | 326° |
| 2026-04-28 11:11 | 19.00983 | 73.09200 | 3778 ft | 195 kts | 327° |
| 2026-04-28 11:11 | 19.02098 | 73.08408 | 3763 ft | 191 kts | 333° |
| 2026-04-28 11:11 | 19.03365 | 73.08009 | 3768 ft | 191 kts | 350° |
| 2026-04-28 11:12 | 19.04687 | 73.07823 | 3768 ft | 193 kts | 352° |
| 2026-04-28 11:12 | 19.06027 | 73.07682 | 3746 ft | 194 kts | 353° |
| 2026-04-28 11:12 | 19.07371 | 73.07537 | 3555 ft | 194 kts | 352° |
| 2026-04-28 11:12 | 19.08503 | 73.06908 | 3370 ft | 183 kts | 310° |
| 2026-04-28 11:13 | 19.09012 | 73.05711 | 3177 ft | 178 kts | 288° |
| 2026-04-28 11:13 | 19.09141 | 73.04411 | 2981 ft | 179 kts | 274° |
| 2026-04-28 11:13 | 19.09120 | 73.03101 | 2761 ft | 180 kts | 271° |
| 2026-04-28 11:13 | 19.09094 | 73.01781 | 2533 ft | 179 kts | 270° |
| 2026-04-28 11:14 | 19.09076 | 73.00470 | 2318 ft | 177 kts | 270° |
| 2026-04-28 11:14 | 19.09057 | 72.99178 | 2074 ft | 173 kts | 270° |
| 2026-04-28 11:14 | 19.09039 | 72.97912 | 1881 ft | 173 kts | 269° |
| 2026-04-28 11:14 | 19.09019 | 72.96660 | 1651 ft | 166 kts | 270° |
| 2026-04-28 11:15 | 19.09003 | 72.95509 | 1462 ft | 146 kts | 268° |
| 2026-04-28 11:15 | 19.08987 | 72.94489 | 1274 ft | 136 kts | 269° |
| 2026-04-28 11:15 | 19.08973 | 72.93491 | 1099 ft | 136 kts | 268° |
| 2026-04-28 11:15 | 19.08958 | 72.92484 | 939 ft | 139 kts | 269° |
| 2026-04-28 11:16 | 19.08943 | 72.91473 | 762 ft | 136 kts | 269° |
| 2026-04-28 11:16 | 19.08928 | 72.90488 | 597 ft | 136 kts | 270° |
| 2026-04-28 11:16 | 19.08913 | 72.89497 | 407 ft | 134 kts | 269° |
| 2026-04-28 11:16 | 19.08898 | 72.88498 | 247 ft | 137 kts | 268° |
| 2026-04-28 11:17 | 19.08883 | 72.87496 | 62 ft | 135 kts | 268° |
| 2026-04-28 11:17 | 19.08868 | 72.86570 | 34 ft | 109 kts | 269° |
| 2026-04-28 11:17 | 19.08886 | 72.85972 | 30 ft | 54 kts | 288° |
| 2026-04-28 11:17 | 19.09000 | 72.85825 | 31 ft | 12 kts | 24° |
| 2026-04-28 11:18 | 19.09033 | 72.85944 | 32 ft | 21 kts | 91° |
| 2026-04-28 11:18 | 19.09034 | 72.86119 | 33 ft | 33 kts | 89° |
| 2026-04-28 11:18 | 19.09038 | 72.86378 | 35 ft | 37 kts | 90° |
| 2026-04-28 11:18 | 19.09040 | 72.86654 | 36 ft | 38 kts | 89° |
| 2026-04-28 11:19 | 19.09088 | 72.86811 | 36 ft | 25 kts | 43° |
| 2026-04-28 11:19 | 19.09136 | 72.86977 | 36 ft | 25 kts | 90° |
| 2026-04-28 11:19 | 19.09149 | 72.87059 | 35 ft | 6 kts | 19° |
| 2026-04-28 11:19 | 19.09204 | 72.87061 | 36 ft | 10 kts | 1° |
| 2026-04-28 11:20 | 19.09240 | 72.87030 | 36 ft | 8 kts | 286° |
| 2026-04-28 11:20 | 19.09307 | 72.86938 | 36 ft | 19 kts | 315° |
| 2026-04-28 11:20 | 19.09408 | 72.86869 | 36 ft | 9 kts | 19° |
| 2026-04-28 11:20 | 19.09410 | 72.86886 | 34 ft | 5 kts | 116° |
| 2026-04-28 11:21 | 19.09398 | 72.86930 | 36 ft | 7 kts | 103° |
| 2026-04-28 11:21 | 19.09391 | 72.86964 | 36 ft | 1 kts | 103° |
| 2026-04-28 11:21 | 19.09389 | 72.86972 | 36 ft | 0 kts | 103° |